Japan Airlines Virtual Airport Information Service

Los Angeles International Airport

ICAO: KLAX Country: United States
Latitude: 33.9425 Longitude: -118.407
Latest Arrival : AAL2364 (KORD-KLAX) Latest Departure : ASA410 (KLAX-KJFK)


WX CaptureLIVE
Data provided by noaa.gov | Fetched at 09:12:13

METAR : KLAX 090853Z 25004KT 10SM FEW006 FEW012 18/14 A2989 RMK AO2 SLP119 T01780144 51003

TAF : KLAX 090859Z 0909/1012 26005KT P6SM FEW006 FEW012 FM090930 26005KT P6SM BKN006 BKN012 FM091600 VRB03KT 6SM HZ OVC012 FM091700 25006KT P6SM SCT015 FM092100 26012KT P6SM SKC FM100300 26006KT P6SM SKC FM100900 25006KT 5SM BR BKN008


Runway Data for KLAX
Data provided by openaviationdata.com

Runway ID Mag Var Hdg Length Elevation Surface ILS Freq ILS Id ILS Slope
06L 13 69° 8916 ft 126 ft Concrete 108.5 IUWU 3
06R 13 69° 10274 ft 126 ft Concrete 111.7 IGPE 3
07L 13 69° 12078 ft 126 ft Concrete 111.1 IIAS 3
07R 13 69° 11084 ft 126 ft Concrete 109.9 IMKZ 3
24L 13 249° 10274 ft 126 ft Concrete 111.7 IHQB 3
24R 13 249° 8916 ft 126 ft Concrete 108.5 IOSS 3
25L 13 249° 11084 ft 126 ft Concrete 109.9 ILAX 3
25R 13 249° 12078 ft 126 ft Concrete 111.1 ICFN 3

Los Angeles International Airport, United States
Use only for reference purposes



Not for navigational purposes.